Time;durP1;ratioP1;P1;durP2;ratioP2;P2;SDS_P1;SDS_P2;PMS_P1;PMS_P2;Temp;Humidity;BMP_temperature;BMP_pressure;BME280_temperature;BME280_humidity;BME280_pressure;Samples;Min_cycle;Max_cycle;Signal;HPM_P1;HPM_P2
2021/10/01 00:00:14;;;;;;;6.30;4.00;;;9.10;3.10;;;;;;5070657;28;20056;-70
2021/10/01 00:02:43;;;;;;;8.80;4.40;;;9.20;3.00;;;;;;5068339;28;20167;-70
2021/10/01 00:05:12;;;;;;;9.52;4.50;;;9.10;3.30;;;;;;5071500;28;20093;-69
2021/10/01 00:07:40;;;;;;;7.10;3.92;;;9.10;3.50;;;;;;5075264;28;20131;-70
2021/10/01 00:10:08;;;;;;;11.70;5.03;;;9.10;3.70;;;;;;5073351;28;20080;-69
2021/10/01 00:12:37;;;;;;;8.48;5.45;;;9.10;3.70;;;;;;5070650;28;20074;-69
2021/10/01 00:15:07;;;;;;;13.43;5.75;;;9.00;4.10;;;;;;5070748;28;20473;-71
2021/10/01 00:17:35;;;;;;;9.25;5.03;;;9.10;4.20;;;;;;5072727;28;20148;-68
2021/10/01 00:20:12;;;;;;;8.63;4.65;;;9.00;4.20;;;;;;5071279;28;20037;-70
2021/10/01 00:22:40;;;;;;;9.05;4.50;;;9.00;4.10;;;;;;5066919;28;21202;-71
2021/10/01 00:25:10;;;;;;;7.47;4.60;;;9.00;4.60;;;;;;5066095;28;20495;-71
2021/10/01 00:27:39;;;;;;;10.10;4.85;;;9.00;4.40;;;;;;5080677;28;20437;-70
2021/10/01 00:30:08;;;;;;;5.80;4.47;;;8.90;4.70;;;;;;5070007;28;20072;-70
2021/10/01 00:32:38;;;;;;;6.72;4.80;;;8.90;4.80;;;;;;5074201;28;20048;-69
2021/10/01 00:35:08;;;;;;;7.75;4.50;;;8.90;5.20;;;;;;5075785;28;20044;-69
2021/10/01 00:37:41;;;;;;;9.75;3.97;;;8.90;6.00;;;;;;5072977;28;20040;-71
2021/10/01 00:40:11;;;;;;;6.72;4.38;;;8.80;6.60;;;;;;5070569;28;20072;-71
2021/10/01 00:42:39;;;;;;;7.35;3.67;;;8.80;6.80;;;;;;5062200;28;20067;-70
2021/10/01 00:45:09;;;;;;;5.65;3.63;;;8.90;5.60;;;;;;5072257;28;20052;-70
2021/10/01 00:47:37;;;;;;;8.52;3.67;;;9.00;4.80;;;;;;5074098;28;20131;-68
2021/10/01 00:50:09;;;;;;;5.28;3.60;;;8.90;4.50;;;;;;5071318;28;20091;-70
2021/10/01 00:52:41;;;;;;;6.68;4.03;;;8.90;4.80;;;;;;5063826;28;20047;-70
2021/10/01 00:55:10;;;;;;;8.30;3.80;;;8.90;4.80;;;;;;5055775;28;20061;-70
2021/10/01 00:57:38;;;;;;;5.10;4.00;;;8.70;5.50;;;;;;5050912;28;20143;-71
2021/10/01 01:00:14;;;;;;;5.55;3.67;;;8.80;6.30;;;;;;5051574;28;20051;-70
2021/10/01 01:02:42;;;;;;;6.38;4.00;;;8.70;5.70;;;;;;5055111;28;20045;-70
2021/10/01 01:05:10;;;;;;;4.90;4.03;;;8.80;6.00;;;;;;5058255;28;20048;-69
2021/10/01 01:07:51;;;;;;;9.05;4.28;;;8.70;5.80;;;;;;5058643;28;20065;-69
2021/10/01 01:10:28;;;;;;;6.55;3.42;;;8.70;5.80;;;;;;5053098;28;20063;-70
2021/10/01 01:13:03;;;;;;;5.07;3.47;;;8.70;5.50;;;;;;5055643;28;20040;-70
2021/10/01 01:15:33;;;;;;;5.82;3.35;;;8.70;5.20;;;;;;5055885;28;20204;-70
2021/10/01 01:18:08;;;;;;;4.70;2.80;;;8.70;5.20;;;;;;5077147;28;20155;-70
2021/10/01 01:20:43;;;;;;;4.03;2.65;;;8.60;5.20;;;;;;5076803;28;20036;-70
2021/10/01 01:23:32;;;;;;;3.90;2.60;;;8.60;5.60;;;;;;5073410;28;20105;-70
2021/10/01 01:26:11;;;;;;;6.50;2.65;;;8.70;5.30;;;;;;5051909;28;20113;-70
2021/10/01 01:29:05;;;;;;;3.35;2.47;;;8.70;5.00;;;;;;5071651;28;20140;-70
2021/10/01 01:31:43;;;;;;;5.28;2.78;;;8.70;5.40;;;;;;5057004;28;20105;-70
2021/10/01 01:34:19;;;;;;;8.18;3.00;;;8.70;5.10;;;;;;5070969;28;20059;-70
2021/10/01 01:36:48;;;;;;;6.43;3.65;;;8.60;5.50;;;;;;5081186;28;20071;-70
2021/10/01 01:39:17;;;;;;;6.65;3.63;;;8.60;5.80;;;;;;5075068;28;20040;-70
2021/10/01 01:41:52;;;;;;;6.65;4.10;;;8.60;6.00;;;;;;5075202;28;20149;-70
2021/10/01 01:44:22;;;;;;;7.22;4.03;;;8.50;6.10;;;;;;5071712;28;20098;-70
2021/10/01 01:46:56;;;;;;;7.43;4.15;;;8.40;6.70;;;;;;5077471;28;20169;-70
2021/10/01 01:49:28;;;;;;;6.78;3.70;;;8.40;7.50;;;;;;5072796;28;20040;-70
2021/10/01 01:52:00;;;;;;;5.90;4.10;;;8.30;8.00;;;;;;5074501;28;20040;-69
2021/10/01 01:54:30;;;;;;;8.40;4.35;;;8.30;8.40;;;;;;5072854;28;20068;-71
2021/10/01 01:57:00;;;;;;;8.48;3.85;;;8.20;9.30;;;;;;5074910;28;20408;-70
2021/10/01 01:59:34;;;;;;;7.68;4.22;;;8.20;9.20;;;;;;5074662;28;20082;-70
2021/10/01 02:02:02;;;;;;;6.07;3.25;;;8.20;9.10;;;;;;5072926;28;20407;-70
2021/10/01 02:04:33;;;;;;;5.32;3.17;;;8.20;9.10;;;;;;5071215;28;20135;-70
2021/10/01 02:07:04;;;;;;;5.78;3.13;;;8.20;9.10;;;;;;5078274;28;20075;-69
2021/10/01 02:09:35;;;;;;;12.13;3.78;;;8.20;9.60;;;;;;5077547;28;20040;-69
2021/10/01 02:12:04;;;;;;;4.30;3.20;;;8.20;10.00;;;;;;5074591;28;20109;-69
2021/10/01 02:14:40;;;;;;;6.22;3.20;;;8.20;10.40;;;;;;5077403;28;20040;-70
2021/10/01 02:17:11;;;;;;;4.75;2.92;;;8.20;10.60;;;;;;5071786;28;20047;-70
2021/10/01 02:19:43;;;;;;;7.00;3.85;;;8.10;10.90;;;;;;5068953;28;20127;-70
2021/10/01 02:22:12;;;;;;;5.80;2.80;;;8.20;11.10;;;;;;5073452;28;20546;-70
2021/10/01 02:24:40;;;;;;;6.15;3.05;;;8.20;11.00;;;;;;5072659;28;20056;-70
2021/10/01 02:27:18;;;;;;;5.85;3.15;;;8.30;10.40;;;;;;5077731;28;20526;-70
2021/10/01 02:29:52;;;;;;;6.68;2.88;;;8.30;10.40;;;;;;5070789;28;20131;-70
2021/10/01 02:32:30;;;;;;;9.00;3.38;;;8.30;9.70;;;;;;5070000;28;20105;-69
2021/10/01 02:35:02;;;;;;;6.03;3.80;;;8.20;10.50;;;;;;5054496;28;20037;-69
2021/10/01 02:37:31;;;;;;;8.20;4.10;;;8.30;10.00;;;;;;5073010;28;20044;-69
2021/10/01 02:40:05;;;;;;;5.90;3.80;;;8.20;10.20;;;;;;5074720;28;20037;-69
2021/10/01 02:42:37;;;;;;;4.93;3.65;;;8.30;10.00;;;;;;5069266;28;20055;-69
2021/10/01 02:45:07;;;;;;;7.43;3.60;;;8.40;9.20;;;;;;5072597;28;20136;-69
2021/10/01 02:47:40;;;;;;;6.47;4.43;;;8.40;9.60;;;;;;5078541;28;20491;-69
2021/10/01 02:50:15;;;;;;;10.60;4.25;;;8.30;9.90;;;;;;5073108;28;20036;-70
2021/10/01 02:52:53;;;;;;;9.20;4.70;;;8.20;10.40;;;;;;5069036;28;20036;-70
2021/10/01 02:55:25;;;;;;;7.57;5.32;;;8.20;10.40;;;;;;5064532;28;20136;-70
2021/10/01 02:58:04;;;;;;;8.85;4.13;;;8.20;10.70;;;;;;5075464;28;20055;-69
2021/10/01 03:00:32;;;;;;;6.15;4.38;;;8.20;11.00;;;;;;5065589;28;20060;-70
2021/10/01 03:03:04;;;;;;;6.82;4.35;;;8.20;11.00;;;;;;5070622;28;20101;-69
2021/10/01 03:05:33;;;;;;;5.25;3.75;;;8.20;10.70;;;;;;5075489;28;20032;-69
2021/10/01 03:08:02;;;;;;;5.63;3.85;;;8.20;11.00;;;;;;5072671;28;20127;-69
2021/10/01 03:10:33;;;;;;;5.60;4.10;;;8.10;11.00;;;;;;5071978;28;20040;-69
2021/10/01 03:13:07;;;;;;;8.45;3.47;;;8.10;11.00;;;;;;5071409;28;20068;-69
2021/10/01 03:15:39;;;;;;;12.10;3.88;;;8.10;12.10;;;;;;5057351;28;20058;-69
2021/10/01 03:18:08;;;;;;;7.55;3.47;;;8.10;12.10;;;;;;5073520;28;20079;-69
2021/10/01 03:20:38;;;;;;;7.47;3.70;;;8.10;11.20;;;;;;5069819;28;20044;-69
2021/10/01 03:23:11;;;;;;;4.82;3.63;;;8.10;10.90;;;;;;5072957;28;20056;-69
2021/10/01 03:25:43;;;;;;;5.80;3.20;;;8.10;10.90;;;;;;5070124;28;20127;-69
2021/10/01 03:28:16;;;;;;;5.78;3.72;;;8.00;10.90;;;;;;5072245;28;20062;-69
2021/10/01 03:30:47;;;;;;;7.30;3.95;;;8.00;11.20;;;;;;5079875;28;20499;-69
2021/10/01 03:33:19;;;;;;;5.93;3.20;;;8.00;11.70;;;;;;5073369;28;20044;-70
2021/10/01 03:35:48;;;;;;;8.82;3.83;;;7.80;12.70;;;;;;5074054;28;20142;-70
2021/10/01 03:38:19;;;;;;;6.40;3.70;;;8.00;12.70;;;;;;5069957;28;20044;-69
2021/10/01 03:40:51;;;;;;;6.68;3.15;;;7.90;13.10;;;;;;5077907;28;20099;-69
2021/10/01 03:43:24;;;;;;;4.80;3.30;;;8.00;12.60;;;;;;5067860;28;20110;-69
2021/10/01 03:45:52;;;;;;;5.13;2.92;;;8.10;12.00;;;;;;5074708;28;20063;-69
2021/10/01 03:48:21;;;;;;;6.32;3.35;;;8.00;11.30;;;;;;5054230;28;20102;-69
2021/10/01 03:50:57;;;;;;;8.95;3.30;;;8.00;12.00;;;;;;5072778;28;20654;-70
2021/10/01 03:53:25;;;;;;;3.60;2.90;;;8.00;11.90;;;;;;5064598;28;20127;-70
2021/10/01 03:55:54;;;;;;;4.95;2.90;;;8.00;12.30;;;;;;5076026;28;20109;-70
2021/10/01 03:58:22;;;;;;;4.93;2.92;;;8.10;11.70;;;;;;5073592;28;20048;-69
2021/10/01 04:00:51;;;;;;;8.55;3.47;;;8.10;11.00;;;;;;5072016;28;20093;-69
2021/10/01 04:03:20;;;;;;;4.65;3.00;;;8.10;11.00;;;;;;5067561;28;20040;-69
2021/10/01 04:05:50;;;;;;;5.22;3.10;;;8.00;10.90;;;;;;5073778;28;20127;-69
2021/10/01 04:08:21;;;;;;;5.15;3.22;;;8.00;11.50;;;;;;5073722;28;20052;-69
2021/10/01 04:10:54;;;;;;;;;;;8.00;12.00;;;;;;5080783;28;20059;-70
2021/10/01 04:13:24;;;;;;;5.05;3.08;;;8.00;12.00;;;;;;5068509;28;19920;-69
2021/10/01 04:15:53;;;;;;;5.00;3.65;;;7.90;12.20;;;;;;5073953;28;20037;-69
2021/10/01 04:18:23;;;;;;;5.90;3.33;;;7.90;12.60;;;;;;5073073;28;20048;-69
2021/10/01 04:20:53;;;;;;;4.28;3.63;;;7.80;13.10;;;;;;5074034;28;20075;-69
2021/10/01 04:23:23;;;;;;;8.48;4.22;;;7.80;14.10;;;;;;5066183;28;20047;-69
2021/10/01 04:25:51;;;;;;;6.50;4.30;;;7.70;14.30;;;;;;5075399;28;20075;-69
2021/10/01 04:28:23;;;;;;;6.47;4.60;;;7.70;14.30;;;;;;5077384;28;20064;-69
2021/10/01 04:30:53;;;;;;;5.78;4.05;;;7.70;14.60;;;;;;5078952;28;20056;-70
2021/10/01 04:33:25;;;;;;;6.25;3.90;;;7.70;15.20;;;;;;5054832;28;20419;-69
2021/10/01 04:35:53;;;;;;;8.18;4.28;;;7.70;15.70;;;;;;5076922;28;20050;-68
2021/10/01 04:38:23;;;;;;;7.80;4.68;;;7.60;16.70;;;;;;5074199;28;20127;-70
2021/10/01 04:40:52;;;;;;;12.80;5.03;;;7.60;17.20;;;;;;5073159;28;20127;-70
2021/10/01 04:43:20;;;;;;;7.93;4.35;;;7.50;17.70;;;;;;5074530;28;20123;-70
2021/10/01 04:45:50;;;;;;;8.77;5.10;;;7.60;17.80;;;;;;5074772;28;20036;-69
2021/10/01 04:48:19;;;;;;;9.82;5.38;;;7.60;17.80;;;;;;5077711;28;20121;-70
2021/10/01 04:50:47;;;;;;;10.63;5.00;;;7.60;17.80;;;;;;5074044;28;20133;-69
2021/10/01 04:53:16;;;;;;;9.40;4.60;;;7.60;17.80;;;;;;5075882;28;20041;-70
2021/10/01 04:55:46;;;;;;;9.25;4.97;;;7.60;17.80;;;;;;5077743;28;20210;-70
2021/10/01 04:58:16;;;;;;;8.00;5.13;;;7.50;18.00;;;;;;5077330;28;20045;-70
2021/10/01 05:00:44;;;;;;;10.55;5.72;;;7.60;18.40;;;;;;5079490;28;20127;-70
2021/10/01 05:03:14;;;;;;;9.80;5.45;;;7.50;18.80;;;;;;5079273;28;20106;-70
2021/10/01 05:05:47;;;;;;;9.77;5.00;;;7.50;19.10;;;;;;5072912;28;20048;-70
2021/10/01 05:08:19;;;;;;;8.75;5.25;;;7.50;19.50;;;;;;5072244;28;20053;-69
2021/10/01 05:10:51;;;;;;;9.07;5.28;;;7.50;19.40;;;;;;5077683;28;20032;-69
2021/10/01 05:13:22;;;;;;;7.88;5.20;;;7.50;19.70;;;;;;5070864;28;20052;-69
2021/10/01 05:15:50;;;;;;;7.57;4.40;;;7.50;19.80;;;;;;5075873;28;20078;-69
2021/10/01 05:18:23;;;;;;;8.77;4.28;;;7.60;19.60;;;;;;5076978;28;20427;-69
2021/10/01 05:20:51;;;;;;;11.02;4.75;;;7.60;19.40;;;;;;5075237;28;20144;-69
2021/10/01 05:23:21;;;;;;;7.82;4.25;;;7.60;19.60;;;;;;5068299;28;20051;-69
2021/10/01 05:25:50;;;;;;;11.35;4.90;;;7.60;19.80;;;;;;5072181;28;20139;-69
2021/10/01 05:28:23;;;;;;;6.87;4.37;;;7.60;19.40;;;;;;5076055;28;20515;-68
2021/10/01 05:30:55;;;;;;;9.00;4.15;;;7.50;20.20;;;;;;5073936;28;20040;-71
2021/10/01 05:33:24;;;;;;;9.70;5.40;;;7.60;20.20;;;;;;5072884;28;20132;-69
2021/10/01 05:35:58;;;;;;;7.93;4.57;;;7.60;19.80;;;;;;5056927;28;20045;-70
2021/10/01 05:38:29;;;;;;;7.40;3.75;;;7.70;18.90;;;;;;5076412;28;20055;-70
2021/10/01 05:41:03;;;;;;;7.85;4.43;;;7.70;18.50;;;;;;5075383;28;20037;-70
2021/10/01 05:43:35;;;;;;;8.80;4.63;;;7.70;18.80;;;;;;5074594;28;20065;-70
2021/10/01 05:46:08;;;;;;;8.55;4.32;;;7.70;18.70;;;;;;5076336;28;20044;-69
2021/10/01 05:48:41;;;;;;;8.25;4.65;;;7.80;18.80;;;;;;5076817;28;20166;-70
2021/10/01 05:51:13;;;;;;;11.95;4.82;;;7.80;18.40;;;;;;5078318;28;20073;-69
2021/10/01 05:54:00;;;;;;;6.55;4.10;;;7.80;17.90;;;;;;5071195;28;20063;-68
2021/10/01 05:56:29;;;;;;;;;;;7.80;17.90;;;;;;5072643;28;20127;-69
2021/10/01 05:58:57;;;;;;;9.25;4.18;;;7.90;17.40;;;;;;5074958;28;20521;-69
2021/10/01 06:01:25;;;;;;;9.45;4.45;;;7.90;17.40;;;;;;5063600;28;20032;-69
2021/10/01 06:03:54;;;;;;;6.43;4.10;;;8.00;17.30;;;;;;5069839;28;20052;-70
2021/10/01 06:06:33;;;;;;;8.57;4.05;;;8.10;16.60;;;;;;5070520;28;20130;-69
2021/10/01 06:09:22;;;;;;;12.85;4.47;;;8.20;16.00;;;;;;5071727;28;20043;-69
2021/10/01 06:12:13;;;;;;;11.18;4.72;;;8.20;14.60;;;;;;5071798;28;20051;-69
2021/10/01 06:15:01;;;;;;;9.63;4.30;;;8.10;15.60;;;;;;5071867;28;20046;-71
2021/10/01 06:17:49;;;;;;;9.57;3.95;;;8.10;14.80;;;;;;5074741;28;20059;-69
2021/10/01 06:20:37;;;;;;;7.07;4.68;;;8.20;14.80;;;;;;5074242;28;20043;-70
2021/10/01 06:23:27;;;;;;;7.68;3.95;;;8.40;14.10;;;;;;5071190;28;20774;-70
2021/10/01 06:26:08;;;;;;;7.55;3.80;;;8.50;13.60;;;;;;5072621;28;20044;-69
2021/10/01 06:28:38;;;;;;;6.72;3.40;;;8.30;13.30;;;;;;5073271;28;20494;-69
2021/10/01 06:31:08;;;;;;;9.63;4.10;;;8.30;13.60;;;;;;5080226;28;20040;-68
2021/10/01 06:33:36;;;;;;;6.03;3.78;;;8.50;12.90;;;;;;5067761;28;20048;-68
2021/10/01 06:36:08;;;;;;;6.03;3.53;;;8.60;13.10;;;;;;5074670;28;20068;-69
2021/10/01 06:38:44;;;;;;;5.80;3.47;;;8.80;11.90;;;;;;5073846;28;20036;-69
2021/10/01 06:41:30;;;;;;;8.85;3.95;;;8.80;10.60;;;;;;5060138;28;20415;-69
2021/10/01 06:44:10;;;;;;;5.72;3.50;;;8.90;10.10;;;;;;5071195;28;20185;-70
2021/10/01 06:46:45;;;;;;;10.30;3.65;;;8.90;9.40;;;;;;5072805;28;20056;-69
2021/10/01 06:49:28;;;;;;;8.85;4.18;;;9.00;8.90;;;;;;5070440;28;20086;-69
2021/10/01 07:45:44;;;;;;;4.53;2.63;;;11.20;1.00;;;;;;5074073;28;20755;-69
2021/10/01 08:21:55;;;;;;;4.55;3.00;;;12.30;1.00;;;;;;5065478;28;20064;-70
2021/10/01 08:24:28;;;;;;;5.40;2.90;;;12.60;1.00;;;;;;5072841;28;20075;-70
2021/10/01 08:27:03;;;;;;;7.80;3.15;;;12.80;1.00;;;;;;5060200;28;20356;-69
2021/10/01 08:29:40;;;;;;;5.35;2.80;;;12.70;1.00;;;;;;5041284;28;20040;-70
2021/10/01 08:32:12;;;;;;;6.40;2.95;;;12.80;1.00;;;;;;5060936;28;20048;-70
2021/10/01 08:34:42;;;;;;;5.80;2.83;;;12.80;1.00;;;;;;5077191;28;20105;-70
2021/10/01 08:37:10;;;;;;;4.32;3.00;;;12.90;1.00;;;;;;5081693;28;20470;-70
2021/10/01 08:39:45;;;;;;;16.53;9.73;;;12.90;1.00;;;;;;5077204;28;20055;-69
2021/10/01 08:42:14;;;;;;;9.85;4.32;;;13.10;1.00;;;;;;5074865;28;20351;-70
2021/10/01 08:44:43;;;;;;;6.05;2.97;;;13.50;1.00;;;;;;5082117;28;20131;-69
2021/10/01 08:47:12;;;;;;;11.18;3.33;;;13.30;1.00;;;;;;5076346;28;20044;-69
2021/10/01 08:49:41;;;;;;;6.50;2.90;;;13.50;1.00;;;;;;5077082;28;20044;-69
2021/10/01 08:52:13;;;;;;;6.70;2.70;;;13.60;1.00;;;;;;5078048;28;20040;-69
2021/10/01 08:54:47;;;;;;;3.88;2.28;;;13.70;1.00;;;;;;5076384;28;20045;-70
2021/10/01 08:57:16;;;;;;;5.93;2.90;;;14.00;1.00;;;;;;5077272;28;20052;-69
2021/10/01 08:59:45;;;;;;;4.85;2.75;;;14.00;1.00;;;;;;5074029;28;20036;-69
2021/10/01 09:02:16;;;;;;;5.07;2.67;;;14.00;1.00;;;;;;5073660;28;20056;-70
2021/10/01 09:04:47;;;;;;;5.00;2.45;;;14.20;1.00;;;;;;5068572;28;20044;-69
2021/10/01 09:07:18;;;;;;;4.50;2.67;;;14.50;1.00;;;;;;5059664;28;20043;-71
2021/10/01 09:09:48;;;;;;;4.60;2.95;;;14.70;1.00;;;;;;5075257;28;20127;-69
2021/10/01 09:12:17;;;;;;;5.97;2.92;;;14.60;1.00;;;;;;5068793;28;20445;-70
2021/10/01 09:14:51;;;;;;;6.05;2.40;;;14.40;1.00;;;;;;5076170;28;20097;-70
2021/10/01 09:17:21;;;;;;;5.82;2.53;;;14.50;1.00;;;;;;5075518;28;20226;-70
2021/10/01 09:19:51;;;;;;;10.25;3.08;;;14.60;1.00;;;;;;5077262;28;20049;-70
2021/10/01 09:22:33;;;;;;;9.38;2.50;;;14.80;1.00;;;;;;5071866;28;20512;-70
2021/10/01 09:25:12;;;;;;;9.65;2.80;;;14.80;1.00;;;;;;5062610;28;20509;-69
2021/10/01 09:27:43;;;;;;;4.70;2.40;;;14.90;1.00;;;;;;5074305;28;20389;-70
2021/10/01 09:30:17;;;;;;;5.00;2.88;;;14.80;1.00;;;;;;5076972;28;20295;-70
2021/10/01 09:33:05;;;;;;;5.43;2.05;;;15.10;1.00;;;;;;5069775;28;20123;-69
2021/10/01 09:35:34;;;;;;;4.50;2.45;;;15.10;1.00;;;;;;5073344;28;20044;-69
2021/10/01 09:38:08;;;;;;;3.85;2.33;;;15.40;1.00;;;;;;5072526;28;20072;-69
2021/10/01 09:40:39;;;;;;;;;;;15.50;1.00;;;;;;5074611;28;20048;-70
2021/10/01 09:43:27;;;;;;;6.68;2.53;;;15.70;1.00;;;;;;5072967;28;20023;-69
2021/10/01 09:46:04;;;;;;;6.30;3.05;;;15.60;1.00;;;;;;5069514;28;20131;-70
2021/10/01 09:48:38;;;;;;;5.47;2.53;;;15.40;1.00;;;;;;5075577;28;20051;-70
2021/10/01 09:51:09;;;;;;;3.58;2.03;;;15.80;1.00;;;;;;5077020;28;20048;-70
2021/10/01 09:53:43;;;;;;;5.05;2.10;;;15.80;1.00;;;;;;5073444;28;20497;-70
2021/10/01 09:56:26;;;;;;;4.30;1.70;;;15.90;1.00;;;;;;5073689;28;20486;-70
2021/10/01 09:59:08;;;;;;;4.15;2.13;;;16.10;1.00;;;;;;5058360;28;20037;-70
2021/10/01 10:01:37;;;;;;;6.22;1.95;;;16.10;1.00;;;;;;5076562;28;20110;-71
2021/10/01 10:04:15;;;;;;;3.38;1.60;;;16.30;1.00;;;;;;5072888;28;20072;-69
2021/10/01 10:06:45;;;;;;;5.60;1.80;;;16.40;1.00;;;;;;5071898;28;20143;-69
2021/10/01 10:09:29;;;;;;;5.70;2.95;;;16.40;1.00;;;;;;5058861;28;20087;-69
2021/10/01 10:12:02;;;;;;;6.03;2.42;;;16.60;1.00;;;;;;5077546;28;20170;-70
2021/10/01 10:14:36;;;;;;;6.47;1.77;;;16.80;1.00;;;;;;5071670;28;20050;-69
2021/10/01 10:17:13;;;;;;;6.32;2.55;;;16.60;1.00;;;;;;5075680;28;20111;-70
2021/10/01 10:19:42;;;;;;;4.55;2.15;;;17.00;1.00;;;;;;5054114;28;20034;-69
2021/10/01 10:22:10;;;;;;;8.50;2.00;;;17.00;1.00;;;;;;5073550;28;20064;-71
2021/10/01 10:24:39;;;;;;;6.00;2.05;;;16.90;1.00;;;;;;5061427;28;20075;-71
2021/10/01 10:27:11;;;;;;;4.38;1.90;;;17.10;1.00;;;;;;5058113;28;20060;-70
2021/10/01 10:29:42;;;;;;;9.30;2.15;;;17.40;1.00;;;;;;5076790;28;20504;-70
2021/10/01 10:32:14;;;;;;;3.20;1.50;;;17.40;1.00;;;;;;5074732;28;20121;-74
2021/10/01 10:34:52;;;;;;;3.85;1.52;;;17.30;1.00;;;;;;5074599;28;20286;-75
2021/10/01 10:37:36;;;;;;;5.25;2.35;;;17.50;1.00;;;;;;5075998;28;20097;-73
2021/10/01 10:40:08;;;;;;;4.25;2.05;;;17.70;1.00;;;;;;5074341;28;20293;-72
2021/10/01 10:42:40;;;;;;;3.53;1.60;;;17.80;1.00;;;;;;5070749;28;20483;-70
2021/10/01 10:45:17;;;;;;;4.72;1.67;;;17.70;1.00;;;;;;5058809;28;20555;-70
2021/10/01 10:47:56;;;;;;;2.75;1.98;;;17.90;1.00;;;;;;5074533;28;20036;-70
2021/10/01 10:50:37;;;;;;;4.07;1.70;;;18.00;1.00;;;;;;5071548;28;20036;-69
2021/10/01 10:53:28;;;;;;;2.95;1.83;;;18.00;1.00;;;;;;5070013;28;20067;-71
2021/10/01 10:56:17;;;;;;;5.72;1.80;;;17.60;1.00;;;;;;5077945;28;20043;-69
2021/10/01 10:58:55;;;;;;;4.75;1.75;;;17.80;1.00;;;;;;5073300;28;20049;-69
2021/10/01 11:01:36;;;;;;;5.10;2.10;;;18.10;1.00;;;;;;5074863;28;20056;-71
2021/10/01 11:04:36;;;;;;;4.03;2.10;;;18.10;1.00;;;;;;5073165;28;20504;-70
2021/10/01 11:07:09;;;;;;;2.50;1.55;;;18.20;1.00;;;;;;5072501;28;20075;-69
2021/10/01 11:09:39;;;;;;;7.00;2.10;;;18.30;1.00;;;;;;5074147;28;20045;-70
2021/10/01 11:12:25;;;;;;;3.85;2.50;;;18.50;1.00;;;;;;5067633;28;20049;-71
2021/10/01 11:15:25;;;;;;;7.13;2.10;;;18.50;1.00;;;;;;5071983;28;20127;-70
2021/10/01 11:18:15;;;;;;;3.95;2.20;;;18.50;1.00;;;;;;5056109;28;20519;-70
2021/10/01 11:20:43;;;;;;;3.50;1.90;;;18.40;1.00;;;;;;5073230;28;20074;-70
2021/10/01 11:23:17;;;;;;;6.70;1.98;;;18.50;1.00;;;;;;5069219;28;20121;-69
2021/10/01 11:26:03;;;;;;;7.43;1.85;;;18.70;1.00;;;;;;5073230;28;20032;-70
2021/10/01 11:28:32;;;;;;;3.03;1.60;;;18.80;1.00;;;;;;5069089;28;20483;-69
2021/10/01 11:31:02;;;;;;;6.47;1.92;;;18.80;1.00;;;;;;5073522;28;20075;-70
2021/10/01 11:33:30;;;;;;;2.65;1.80;;;18.80;1.00;;;;;;5070892;28;20074;-69
2021/10/01 11:36:03;;;;;;;5.65;1.70;;;18.90;1.00;;;;;;5073709;28;20099;-70
2021/10/01 11:38:33;;;;;;;8.60;1.92;;;19.10;1.00;;;;;;5072472;28;20131;-70
2021/10/01 11:41:13;;;;;;;3.88;1.65;;;19.20;1.00;;;;;;5076443;28;20048;-70
2021/10/01 11:43:49;;;;;;;3.97;1.55;;;19.20;1.00;;;;;;5066893;28;20047;-73
2021/10/01 11:46:33;;;;;;;2.42;1.52;;;19.40;1.00;;;;;;5076203;28;20418;-73
2021/10/01 11:49:07;;;;;;;5.70;1.48;;;19.40;1.00;;;;;;5071484;28;20072;-71
2021/10/01 11:51:37;;;;;;;2.53;1.70;;;19.30;1.00;;;;;;5072476;28;20041;-69
2021/10/01 11:54:16;;;;;;;3.47;1.95;;;19.40;1.00;;;;;;5070629;28;20439;-70
2021/10/01 11:56:56;;;;;;;5.25;2.78;;;19.70;1.00;;;;;;5075012;28;20040;-69
2021/10/01 11:59:46;;;;;;;3.20;1.83;;;19.90;1.00;;;;;;5075166;28;20055;-70
2021/10/01 12:02:43;;;;;;;3.33;1.20;;;19.80;1.00;;;;;;5068183;28;20041;-71
2021/10/01 12:05:30;;;;;;;3.70;1.30;;;19.70;1.00;;;;;;5071345;28;20075;-70
2021/10/01 12:08:00;;;;;;;3.15;1.30;;;19.80;1.00;;;;;;5056221;28;20415;-71
2021/10/01 12:10:37;;;;;;;2.33;1.05;;;19.70;1.00;;;;;;5059678;28;20044;-71
2021/10/01 12:13:30;;;;;;;;;;;19.80;1.00;;;;;;5069043;28;20044;-70
2021/10/01 12:16:00;;;;;;;3.20;1.00;;;19.70;1.00;;;;;;5075654;28;20015;-72
2021/10/01 12:18:35;;;;;;;;;;;19.80;1.00;;;;;;5074057;28;20044;-69
2021/10/01 12:21:07;;;;;;;6.28;1.00;;;19.90;1.00;;;;;;5055490;28;20288;-70
2021/10/01 12:23:39;;;;;;;3.55;1.25;;;19.80;1.00;;;;;;5069023;28;20082;-72
2021/10/01 12:26:35;;;;;;;2.22;0.88;;;19.90;1.00;;;;;;5075982;28;20051;-71
2021/10/01 12:29:25;;;;;;;4.60;1.08;;;20.10;1.00;;;;;;5064077;28;20052;-70
2021/10/01 12:32:00;;;;;;;2.40;0.88;;;20.20;1.00;;;;;;5070375;28;20492;-70
2021/10/01 12:34:41;;;;;;;1.63;1.08;;;20.10;1.00;;;;;;5068090;28;20735;-71
2021/10/01 12:37:11;;;;;;;1.58;0.80;;;20.30;1.00;;;;;;5071625;28;20094;-71
2021/10/01 12:39:42;;;;;;;1.83;1.00;;;20.40;1.00;;;;;;5071368;28;20403;-70
2021/10/01 12:42:20;;;;;;;2.97;0.90;;;20.20;1.00;;;;;;5069222;28;20056;-70
2021/10/01 12:44:59;;;;;;;2.08;1.05;;;20.20;1.00;;;;;;5070877;28;20062;-70
2021/10/01 12:47:27;;;;;;;3.85;1.20;;;20.30;1.00;;;;;;5072747;28;20511;-71
2021/10/01 12:50:00;;;;;;;5.03;1.35;;;20.30;1.00;;;;;;5070436;28;20056;-71
2021/10/01 12:52:30;;;;;;;1.90;0.90;;;20.50;1.00;;;;;;5070358;28;20044;-71
2021/10/01 12:55:06;;;;;;;2.42;1.20;;;20.60;1.00;;;;;;5077605;28;20496;-71
2021/10/01 12:57:40;;;;;;;3.38;0.90;;;20.70;1.00;;;;;;5070676;28;20052;-70
2021/10/01 13:00:13;;;;;;;3.63;0.80;;;20.70;1.00;;;;;;5076873;28;20047;-70
2021/10/01 13:02:43;;;;;;;2.65;1.00;;;20.70;1.00;;;;;;5061280;28;20134;-71
2021/10/01 13:05:15;;;;;;;5.43;0.88;;;20.90;1.00;;;;;;5078201;28;20521;-70
2021/10/01 13:07:44;;;;;;;7.30;1.23;;;21.10;1.00;;;;;;5071797;28;20044;-70
2021/10/01 13:10:31;;;;;;;2.75;0.73;;;21.00;1.00;;;;;;5074496;28;20055;-71
2021/10/01 13:13:05;;;;;;;2.25;1.00;;;21.00;1.00;;;;;;5069620;28;20421;-71
2021/10/01 13:15:42;;;;;;;8.00;1.40;;;21.00;1.00;;;;;;5076793;28;20051;-70
2021/10/01 13:18:23;;;;;;;2.85;0.95;;;21.10;1.00;;;;;;5072157;28;20056;-70
2021/10/01 13:20:56;;;;;;;4.10;0.90;;;21.10;1.00;;;;;;5075971;28;20067;-70
2021/10/01 13:23:35;;;;;;;2.13;1.02;;;21.20;1.00;;;;;;5072953;28;20789;-72
2021/10/01 13:26:11;;;;;;;2.08;1.30;;;21.00;1.00;;;;;;5074679;28;20113;-71
2021/10/01 13:28:45;;;;;;;3.35;1.10;;;21.10;1.00;;;;;;5073636;28;20048;-70
2021/10/01 13:31:17;;;;;;;4.18;0.77;;;21.00;1.00;;;;;;5042720;28;20565;-71
2021/10/01 13:33:51;;;;;;;3.08;1.10;;;21.00;1.00;;;;;;5065383;28;20511;-70
2021/10/01 13:36:22;;;;;;;4.18;0.88;;;21.10;1.00;;;;;;5046103;28;20487;-71
2021/10/01 13:38:56;;;;;;;2.42;0.80;;;21.10;1.00;;;;;;5072506;28;20062;-70
2021/10/01 13:41:29;;;;;;;4.18;0.75;;;21.20;1.00;;;;;;5073335;28;20044;-70
2021/10/01 13:44:01;;;;;;;4.45;1.65;;;21.10;1.00;;;;;;5053998;28;20051;-71
2021/10/01 13:46:30;;;;;;;3.80;0.90;;;21.00;1.00;;;;;;5074952;28;20131;-69
2021/10/01 13:48:58;;;;;;;1.65;1.02;;;21.10;1.00;;;;;;5073150;28;20087;-71
2021/10/01 13:51:27;;;;;;;2.35;1.20;;;21.10;1.00;;;;;;5079071;28;20067;-70
2021/10/01 13:53:57;;;;;;;2.55;1.10;;;21.10;1.00;;;;;;5071573;28;20349;-70
2021/10/01 13:56:30;;;;;;;2.50;0.80;;;21.10;1.00;;;;;;5081526;28;20048;-71
2021/10/01 13:59:01;;;;;;;1.38;0.95;;;21.10;1.00;;;;;;5077952;28;20149;-71
2021/10/01 14:01:32;;;;;;;1.80;1.17;;;21.10;1.00;;;;;;5075004;28;20369;-70
2021/10/01 14:04:05;;;;;;;3.03;1.20;;;21.40;1.00;;;;;;5064510;28;20123;-70
2021/10/01 14:06:37;;;;;;;2.05;1.00;;;21.30;1.00;;;;;;5071835;28;20393;-71
2021/10/01 14:09:06;;;;;;;3.45;1.20;;;21.50;1.00;;;;;;5071883;28;20054;-70
2021/10/01 14:11:59;;;;;;;2.10;1.10;;;21.50;1.00;;;;;;5079289;28;20047;-70
2021/10/01 14:14:31;;;;;;;1.83;0.98;;;21.60;1.00;;;;;;5069065;28;20036;-69
2021/10/01 14:16:59;;;;;;;1.73;1.38;;;21.30;1.00;;;;;;5049141;28;20160;-70
2021/10/01 14:19:29;;;;;;;1.75;0.93;;;21.30;1.00;;;;;;5073593;28;20125;-69
2021/10/01 14:22:04;;;;;;;3.63;1.35;;;21.30;1.00;;;;;;5069464;28;20055;-69
2021/10/01 14:24:37;;;;;;;2.47;1.20;;;21.30;1.00;;;;;;5072435;28;20113;-71
2021/10/01 14:27:31;;;;;;;3.33;1.23;;;21.10;1.00;;;;;;5075292;28;20041;-70
2021/10/01 14:29:59;;;;;;;4.28;1.40;;;21.00;1.00;;;;;;5080126;28;20048;-70
2021/10/01 14:32:29;;;;;;;3.80;2.45;;;21.10;1.00;;;;;;5070796;28;20087;-70
2021/10/01 14:34:57;;;;;;;5.03;1.30;;;21.30;1.00;;;;;;5072532;28;20112;-70
2021/10/01 14:37:27;;;;;;;2.15;1.48;;;21.30;1.00;;;;;;5075225;28;20067;-70
2021/10/01 14:39:57;;;;;;;1.98;1.15;;;21.30;1.00;;;;;;5074989;28;20138;-70
2021/10/01 14:42:25;;;;;;;4.40;1.35;;;21.30;1.00;;;;;;5070589;28;20131;-70
2021/10/01 14:44:56;;;;;;;2.15;1.45;;;21.20;1.00;;;;;;5070364;28;20102;-70
2021/10/01 14:47:29;;;;;;;1.95;1.33;;;21.40;1.00;;;;;;5074719;28;20044;-69
2021/10/01 14:49:58;;;;;;;3.22;1.30;;;21.30;1.00;;;;;;5077362;28;20508;-69
2021/10/01 14:52:28;;;;;;;3.85;1.73;;;21.30;1.00;;;;;;5071980;28;20075;-70
2021/10/01 14:54:56;;;;;;;1.48;1.30;;;21.30;1.00;;;;;;5056690;28;20044;-70
2021/10/01 14:57:24;;;;;;;4.80;1.50;;;21.30;1.00;;;;;;5080053;28;20072;-71
2021/10/01 14:59:52;;;;;;;3.17;1.80;;;21.20;1.00;;;;;;5075052;28;20496;-70